Time;durP1;ratioP1;P1;durP2;ratioP2;P2;SDS_P1;SDS_P2;PMS_P1;PMS_P2;Temp;Humidity;BMP_temperature;BMP_pressure;BME280_temperature;BME280_humidity;BME280_pressure;Samples;Min_cycle;Max_cycle;Signal;HPM_P1;HPM_P2
2022/10/02 00:02:01;;;;;;;30.58;5.93;;;;;;;11.77;100.00;101361.28;5074840;28;20467;-80
2022/10/02 00:04:40;;;;;;;30.17;5.75;;;;;;;11.76;100.00;101368.44;5070023;28;20066;-81
2022/10/02 00:07:14;;;;;;;39.83;7.43;;;;;;;11.77;100.00;101366.59;5080008;28;20485;-82
2022/10/02 00:09:53;;;;;;;26.27;4.85;;;;;;;11.80;100.00;101371.72;5065206;28;20066;-81
2022/10/02 00:12:22;;;;;;;25.85;5.18;;;;;;;11.76;100.00;101365.75;5066078;28;20149;-81
2022/10/02 00:14:51;;;;;;;29.00;5.43;;;;;;;11.81;100.00;101376.09;5056113;28;20083;-81
2022/10/02 00:17:33;;;;;;;37.25;6.50;;;;;;;11.82;100.00;101381.28;5060391;28;20021;-81
2022/10/02 00:19:59;;;;;;;28.98;5.30;;;;;;;11.82;100.00;101381.28;5074127;28;20040;-81
2022/10/02 00:22:33;;;;;;;29.50;5.35;;;;;;;11.83;100.00;101382.13;5074445;28;20561;-81
2022/10/02 00:25:19;;;;;;;33.03;5.53;;;;;;;11.83;100.00;101382.97;5073779;28;20052;-81
2022/10/02 00:27:55;;;;;;;30.92;5.65;;;;;;;11.82;100.00;101380.41;5078513;28;20445;-80
2022/10/02 00:30:20;;;;;;;24.10;4.70;;;;;;;11.83;100.00;101382.97;5063618;28;20056;-81
2022/10/02 00:33:11;;;;;;;26.20;5.35;;;;;;;11.86;100.00;101392.56;5083257;28;20128;-81
2022/10/02 00:35:53;;;;;;;31.42;5.55;;;;;;;11.86;100.00;101392.56;5071563;28;20071;-81
2022/10/02 00:38:27;;;;;;;20.98;4.43;;;;;;;11.84;100.00;101395.34;5083653;28;20181;-80
2022/10/02 00:41:12;;;;;;;37.83;6.45;;;;;;;11.84;100.00;101392.66;5077941;28;20035;-81
2022/10/02 00:44:01;;;;;;;30.10;6.55;;;;;;;11.85;100.00;101396.16;5065348;28;20032;-81
2022/10/02 00:46:49;;;;;;;30.77;5.97;;;;;;;11.84;100.00;101398.00;5071550;28;20021;-80
2022/10/02 00:49:28;;;;;;;32.10;5.32;;;;;;;11.85;100.00;101394.34;5087802;28;20074;-81
2022/10/02 00:52:15;;;;;;;25.08;5.50;;;;;;;11.85;100.00;101389.03;5119032;22;20068;-81
2022/10/02 00:54:56;;;;;;;25.95;6.03;;;;;;;11.86;100.00;101397.88;5053357;28;20029;-81
2022/10/02 00:57:38;;;;;;;25.77;5.65;;;;;;;11.88;100.00;101393.28;5057311;28;20028;-81
2022/10/02 01:00:10;;;;;;;30.65;6.25;;;;;;;11.88;100.00;101392.44;5053897;28;20056;-82
2022/10/02 01:03:01;;;;;;;29.65;5.55;;;;;;;11.88;100.00;101403.94;5054490;28;20064;-78
2022/10/02 01:05:26;;;;;;;33.90;6.05;;;;;;;11.89;100.00;101389.69;5048736;28;20032;-81
2022/10/02 01:07:54;;;;;;;33.17;5.40;;;;;;;11.90;100.00;101401.16;5058501;28;20025;-81
2022/10/02 01:10:21;;;;;;;30.67;5.85;;;;;;;11.87;100.00;101391.56;5058429;28;20025;-78
2022/10/02 01:12:48;;;;;;;33.05;5.72;;;;;;;11.90;100.00;101398.50;5056477;28;20048;-79
2022/10/02 01:15:20;;;;;;;36.05;6.53;;;;;;;11.91;100.00;101400.22;5058770;28;20044;-79
2022/10/02 01:17:48;;;;;;;31.15;5.53;;;;;;;11.96;100.00;101408.75;5057035;28;20037;-79
2022/10/02 01:20:16;;;;;;;30.77;6.23;;;;;;;11.96;100.00;101404.25;5062319;28;20491;-79
2022/10/02 01:22:52;;;;;;;36.90;6.45;;;;;;;11.96;100.00;101387.44;5053466;28;20059;-80
2022/10/02 01:25:18;;;;;;;28.73;5.45;;;;;;;11.97;100.00;101384.66;5040360;28;20108;-80
2022/10/02 01:27:44;;;;;;;34.75;6.30;;;;;;;11.96;100.00;101382.97;5057398;28;20520;-80
2022/10/02 01:30:19;;;;;;;32.38;6.47;;;;;;;12.00;100.00;101384.41;5043686;28;20063;-80
2022/10/02 01:32:52;;;;;;;33.95;5.28;;;;;;;12.00;100.00;101379.09;5055459;28;20117;-80
2022/10/02 01:35:20;;;;;;;36.25;5.82;;;;;;;12.01;100.00;101388.78;5054374;28;20104;-80
2022/10/02 01:37:47;;;;;;;38.50;5.78;;;;;;;12.00;100.00;101387.06;5044906;28;20041;-80
2022/10/02 01:40:34;;;;;;;31.15;5.43;;;;;;;12.03;100.00;101392.19;5054934;28;20036;-80
2022/10/02 01:43:04;;;;;;;35.90;5.60;;;;;;;12.01;100.00;101390.63;5048794;28;20028;-81
2022/10/02 01:46:02;;;;;;;30.83;5.10;;;;;;;12.04;100.00;101395.72;5047923;28;20032;-80
2022/10/02 01:48:36;;;;;;;29.73;5.60;;;;;;;12.03;100.00;101399.34;5054052;28;20396;-80
2022/10/02 01:51:07;;;;;;;37.85;6.65;;;;;;;12.04;100.00;101403.72;5056641;28;20033;-80
2022/10/02 01:53:44;;;;;;;31.67;5.40;;;;;;;12.05;100.00;101404.53;5036711;28;20072;-80
2022/10/02 01:56:26;;;;;;;30.08;5.65;;;;;;;12.06;100.00;101393.78;5036451;28;20025;-80
2022/10/02 01:59:10;;;;;;;38.65;5.57;;;;;;;12.07;100.00;101398.13;5037193;28;20029;-80
2022/10/02 02:01:50;;;;;;;38.05;5.18;;;;;;;12.04;100.00;101390.41;5031847;28;20037;-80
2022/10/02 02:04:43;;;;;;;35.30;5.68;;;;;;;12.10;100.00;101405.06;5041251;28;20116;-80
2022/10/02 02:07:27;;;;;;;29.40;5.57;;;;;;;12.04;100.00;101390.41;5019862;28;20022;-80
2022/10/02 02:10:07;;;;;;;37.90;5.97;;;;;;;12.05;100.00;101378.75;5052692;28;20507;-80
2022/10/02 02:12:41;;;;;;;31.48;6.03;;;;;;;12.08;100.00;101394.50;5030850;28;20112;-80
2022/10/02 02:15:11;;;;;;;37.40;5.70;;;;;;;12.11;100.00;101399.63;5048321;28;20033;-80
2022/10/02 02:17:49;;;;;;;35.22;5.68;;;;;;;12.15;100.00;101397.56;5033753;28;20039;-80
2022/10/02 02:20:21;;;;;;;35.88;5.93;;;;;;;12.17;100.00;101393.84;5041729;28;20063;-80
2022/10/02 02:22:50;;;;;;;34.10;6.03;;;;;;;12.18;100.00;101402.66;5042300;28;20441;-80
2022/10/02 02:25:19;;;;;;;31.27;6.13;;;;;;;12.20;100.00;101400.72;5036094;28;20107;-80
2022/10/02 02:27:50;;;;;;;30.85;5.75;;;;;;;12.20;100.00;101406.91;5034488;28;20033;-80
2022/10/02 02:30:17;;;;;;;28.45;5.68;;;;;;;12.25;100.00;101408.38;5046012;28;20029;-81
2022/10/02 02:32:49;;;;;;;31.67;5.80;;;;;;;12.25;100.00;101397.72;5040389;28;20095;-80
2022/10/02 02:35:33;;;;;;;21.02;5.75;;;;;;;12.32;100.00;101412.28;5039011;28;20045;-80
2022/10/02 02:38:11;;;;;;;30.38;6.25;;;;;;;12.32;100.00;101398.97;5049046;28;20442;-80
2022/10/02 02:40:40;;;;;;;21.65;5.75;;;;;;;12.36;100.00;101401.28;5036703;28;20091;-80
2022/10/02 02:43:18;;;;;;;27.20;5.22;;;;;;;12.42;100.00;101393.78;5041081;28;20040;-80
2022/10/02 02:45:53;;;;;;;18.98;4.75;;;;;;;12.40;100.00;101391.25;5034105;28;20040;-80
2022/10/02 02:48:25;;;;;;;18.27;4.07;;;;;;;12.38;100.00;101401.19;5047311;28;20033;-80
2022/10/02 02:51:20;;;;;;;17.63;3.83;;;;;;;12.38;100.00;101406.50;5041927;28;20025;-80
2022/10/02 02:54:03;;;;;;;15.20;3.25;;;;;;;12.31;100.00;101397.28;5035664;28;20053;-80
2022/10/02 02:56:31;;;;;;;19.17;3.80;;;;;;;12.27;100.00;101403.78;5034127;28;20028;-80
2022/10/02 02:59:04;;;;;;;15.63;4.53;;;;;;;12.26;100.00;101418.94;5036946;28;20406;-80
2022/10/02 03:01:29;;;;;;;12.50;2.65;;;;;;;12.23;100.00;101413.81;5034237;28;20056;-80
2022/10/02 03:03:55;;;;;;;11.63;2.90;;;;;;;12.16;100.00;101408.09;5046509;28;20404;-80
2022/10/02 03:06:32;;;;;;;11.02;2.35;;;;;;;12.16;100.00;101408.09;5033235;28;20033;-80
2022/10/02 03:09:00;;;;;;;6.63;2.40;;;;;;;12.14;100.00;101411.84;5030018;28;20026;-80
2022/10/02 03:12:01;;;;;;;12.80;2.78;;;;;;;12.13;100.00;101415.47;5053017;28;20025;-81
2022/10/02 03:15:04;;;;;;;9.55;3.00;;;;;;;12.10;100.00;101410.38;5055582;28;20085;-80
2022/10/02 03:17:38;;;;;;;8.50;2.70;;;;;;;12.06;100.00;101416.88;5037379;28;20030;-80
2022/10/02 03:20:18;;;;;;;6.55;1.90;;;;;;;12.02;100.00;101419.78;5055151;28;20224;-81
2022/10/02 03:23:00;;;;;;;8.40;2.40;;;;;;;11.91;100.00;101394.88;5039568;28;20097;-79
2022/10/02 03:25:36;;;;;;;7.82;2.25;;;;;;;11.98;100.00;101407.66;5052673;28;20040;-79
2022/10/02 03:28:21;;;;;;;7.65;2.35;;;;;;;11.98;100.00;101414.78;5054982;28;20060;-79
2022/10/02 03:30:49;;;;;;;11.43;2.72;;;;;;;11.96;100.00;101408.75;5042173;28;20061;-80
2022/10/02 03:33:15;;;;;;;11.55;3.00;;;;;;;11.95;100.00;101415.00;5055311;28;20041;-80
2022/10/02 03:35:42;;;;;;;11.63;3.35;;;;;;;11.94;100.00;101413.31;5056777;28;20029;-79
2022/10/02 03:38:12;;;;;;;15.35;3.15;;;;;;;11.92;100.00;101410.75;5044127;28;20041;-79
2022/10/02 03:40:38;;;;;;;10.93;3.17;;;;;;;11.93;100.00;101414.28;5056518;28;20021;-79
2022/10/02 03:43:03;;;;;;;10.50;3.45;;;;;;;11.93;100.00;101422.28;5041156;28;20025;-79
2022/10/02 03:45:29;;;;;;;11.82;3.83;;;;;;;11.91;100.00;101416.19;5040607;28;20025;-79
2022/10/02 03:47:55;;;;;;;10.23;3.42;;;;;;;11.94;100.00;101438.13;5047077;28;20103;-78
2022/10/02 03:50:20;;;;;;;13.48;3.97;;;;;;;11.92;100.00;101442.69;5050827;28;20035;-80
2022/10/02 03:52:51;;;;;;;11.77;3.97;;;;;;;11.92;100.00;101448.03;5042919;28;20053;-80
2022/10/02 03:55:31;;;;;;;14.68;4.20;;;;;;;11.92;100.00;101434.72;5036208;28;20086;-80
2022/10/02 03:57:57;;;;;;;13.45;5.55;;;;;;;11.92;100.00;101447.19;5036626;28;20468;-80
2022/10/02 04:00:30;;;;;;;24.10;8.73;;;;;;;11.87;100.00;101412.88;5036106;28;20018;-80
2022/10/02 04:03:19;;;;;;;24.45;9.85;;;;;;;11.95;100.00;101428.31;5035412;28;20061;-80
2022/10/02 04:06:02;;;;;;;18.48;9.90;;;;;;;11.95;100.00;101426.50;5045193;28;20060;-80
2022/10/02 04:08:33;;;;;;;24.33;10.35;;;;;;;11.95;100.00;101417.69;5031135;28;20034;-79
2022/10/02 04:11:20;;;;;;;22.65;9.82;;;;;;;12.03;100.00;101434.78;5040898;28;20472;-79
2022/10/02 04:13:58;;;;;;;24.70;9.77;;;;;;;12.03;100.00;101426.78;5033928;28;20048;-80
2022/10/02 04:16:30;;;;;;;19.48;8.73;;;;;;;12.01;100.00;101428.72;5034213;28;20037;-80
2022/10/02 04:19:03;;;;;;;18.50;8.20;;;;;;;12.00;100.00;101435.00;5033221;28;20033;-80
2022/10/02 04:21:47;;;;;;;20.95;8.40;;;;;;;12.00;100.00;101429.69;5037581;28;20030;-81
2022/10/02 04:24:18;;;;;;;20.63;7.47;;;;;;;12.01;100.00;101434.06;5045110;28;20021;-81
2022/10/02 04:27:03;;;;;;;21.50;7.68;;;;;;;12.03;100.00;101436.59;5045067;28;20033;-80
2022/10/02 04:29:36;;;;;;;26.02;9.02;;;;;;;12.01;100.00;101433.22;5045878;28;20029;-79
2022/10/02 04:32:14;;;;;;;25.50;9.10;;;;;;;12.02;100.00;101430.44;5054524;28;20109;-80
2022/10/02 04:34:40;;;;;;;22.40;9.48;;;;;;;12.06;100.00;101424.88;5053244;28;20013;-79
2022/10/02 04:37:31;;;;;;;22.67;9.82;;;;;;;12.03;100.00;101421.47;5043387;28;20097;-79
2022/10/02 04:40:29;;;;;;;26.63;10.95;;;;;;;12.13;100.00;101436.78;5045734;28;20491;-80
2022/10/02 04:43:07;;;;;;;25.45;11.23;;;;;;;12.11;100.00;101436.91;5037978;28;20023;-80
2022/10/02 04:46:10;;;;;;;26.60;13.30;;;;;;;12.17;100.00;101448.88;5053162;28;20491;-80
2022/10/02 04:48:42;;;;;;;31.60;15.25;;;;;;;12.19;100.00;101454.94;5031790;28;20093;-81
2022/10/02 04:51:16;;;;;;;35.00;17.05;;;;;;;12.23;100.00;101456.44;5049407;28;20222;-80
2022/10/02 04:54:12;;;;;;;36.67;18.17;;;;;;;12.26;100.00;101452.69;5049920;28;20049;-80
2022/10/02 04:56:52;;;;;;;36.80;18.63;;;;;;;12.28;100.00;101451.63;5059653;28;20329;-81
2022/10/02 04:59:25;;;;;;;33.15;16.70;;;;;;;12.30;100.00;101460.34;5055426;28;20038;-81
2022/10/02 05:01:57;;;;;;;38.40;16.90;;;;;;;12.37;100.00;101463.41;5038134;28;20048;-80
2022/10/02 05:04:36;;;;;;;36.42;18.02;;;;;;;12.40;100.00;101456.03;5059464;28;20021;-80
2022/10/02 05:07:26;;;;;;;44.17;18.92;;;;;;;12.44;100.00;101469.13;5058899;28;20037;-80
2022/10/02 05:10:03;;;;;;;36.47;17.92;;;;;;;12.43;100.00;101473.59;5049901;28;20037;-80
2022/10/02 05:12:51;;;;;;;34.00;18.63;;;;;;;12.45;100.00;101473.50;5047422;28;20064;-81
2022/10/02 05:15:31;;;;;;;42.20;20.15;;;;;;;12.46;100.00;101467.22;5068424;28;20497;-81
2022/10/02 05:18:10;;;;;;;46.78;20.30;;;;;;;12.46;100.00;101467.22;5049397;28;20463;-80
2022/10/02 05:20:38;;;;;;;37.55;19.75;;;;;;;12.47;100.00;101464.41;5049247;28;20045;-80
2022/10/02 05:23:38;;;;;;;35.63;19.98;;;;;;;12.45;100.00;101466.34;5052069;28;20042;-80
2022/10/02 05:26:22;;;;;;;;;;;;;;;12.51;100.00;101468.56;5053657;28;20029;-80
2022/10/02 05:29:18;;;;;;;38.58;19.15;;;;;;;12.47;100.00;101475.06;5056747;28;19959;-80
2022/10/02 05:31:55;;;;;;;35.20;19.58;;;;;;;12.49;100.00;101482.94;5043396;28;20480;-80
2022/10/02 05:34:53;;;;;;;37.03;19.45;;;;;;;12.52;100.00;101488.91;5042663;28;20155;-80
2022/10/02 05:37:39;;;;;;;37.03;17.57;;;;;;;12.51;100.00;101487.22;5048718;28;20021;-80
2022/10/02 05:40:25;;;;;;;36.58;16.48;;;;;;;12.52;100.00;101496.03;5051430;28;20323;-81
2022/10/02 05:43:02;;;;;;;38.65;15.07;;;;;;;12.53;100.00;101497.75;5065105;28;20037;-81
2022/10/02 05:45:51;;;;;;;33.50;15.27;;;;;;;12.52;100.00;101496.91;5059503;28;20017;-81
2022/10/02 05:48:25;;;;;;;35.60;13.63;;;;;;;12.49;100.00;101488.28;5062107;28;20033;-81
2022/10/02 05:51:35;;;;;;;35.40;14.07;;;;;;;12.54;100.00;101494.09;5049840;28;20369;-81
2022/10/02 05:54:15;;;;;;;29.48;10.48;;;;;;;12.52;100.00;101491.59;4986024;28;20108;-81
2022/10/02 05:56:53;;;;;;;32.13;10.45;;;;;;;12.53;100.00;101490.59;5040739;28;20029;-81
2022/10/02 05:59:31;;;;;;;29.58;10.45;;;;;;;12.55;100.00;101495.81;5063828;28;20084;-82
2022/10/02 06:02:01;;;;;;;36.38;9.40;;;;;;;12.57;100.00;101493.88;5051683;28;20036;-80
2022/10/02 06:04:30;;;;;;;29.27;9.30;;;;;;;12.56;100.00;101493.03;5046752;28;20041;-80
2022/10/02 06:07:01;;;;;;;26.98;9.38;;;;;;;12.58;100.00;101492.94;5046401;28;20427;-80
2022/10/02 06:09:33;;;;;;;25.25;7.82;;;;;;;12.55;100.00;101490.50;5044508;28;20037;-81
2022/10/02 06:12:27;;;;;;;34.50;7.65;;;;;;;12.58;100.00;101503.59;5046248;28;20041;-80
2022/10/02 06:14:57;;;;;;;39.03;7.75;;;;;;;12.59;100.00;101500.81;5027101;28;20049;-80
2022/10/02 06:17:29;;;;;;;37.22;8.50;;;;;;;12.63;100.00;101520.09;5048692;28;20037;-81
2022/10/02 06:20:17;;;;;;;32.08;7.38;;;;;;;12.65;100.00;101518.16;5043386;28;20026;-81
2022/10/02 06:22:48;;;;;;;31.90;7.22;;;;;;;12.67;100.00;101526.88;5042028;28;20116;-80
2022/10/02 06:25:35;;;;;;;28.92;7.88;;;;;;;12.68;100.00;101523.25;5050977;28;20041;-80
2022/10/02 06:28:24;;;;;;;28.95;7.78;;;;;;;12.69;100.00;101527.63;5028046;28;20034;-81
2022/10/02 06:30:57;;;;;;;23.13;6.63;;;;;;;12.71;100.00;101527.50;5049162;28;20087;-81
2022/10/02 06:33:25;;;;;;;21.98;6.43;;;;;;;12.71;100.00;101523.03;5037138;28;20072;-80
2022/10/02 06:36:06;;;;;;;29.45;7.20;;;;;;;12.71;100.00;101523.03;5039037;28;20187;-81
2022/10/02 06:39:06;;;;;;;26.58;7.03;;;;;;;12.69;100.00;101514.31;5030194;28;20473;-80
2022/10/02 06:41:54;;;;;;;36.75;7.93;;;;;;;12.77;100.00;101533.25;5045206;28;20068;-80
2022/10/02 06:44:30;;;;;;;30.85;6.85;;;;;;;12.76;100.00;101536.84;5049265;28;20029;-80
2022/10/02 06:47:17;;;;;;;31.75;7.38;;;;;;;12.81;100.00;101533.00;5044670;28;20060;-81
2022/10/02 06:50:23;;;;;;;29.20;7.85;;;;;;;12.83;100.00;101549.75;5039581;28;20361;-80
2022/10/02 06:53:05;;;;;;;26.55;7.68;;;;;;;12.83;100.00;101552.41;5048211;28;20022;-81
2022/10/02 06:55:47;;;;;;;28.65;7.75;;;;;;;12.84;100.00;101556.75;5048062;28;20029;-80
2022/10/02 06:58:40;;;;;;;28.10;9.52;;;;;;;12.85;100.00;101559.31;5041556;28;20037;-80
2022/10/02 07:01:24;;;;;;;31.92;8.20;;;;;;;12.87;100.00;101564.53;5044736;28;20088;-81
2022/10/02 07:04:19;;;;;;;29.13;8.30;;;;;;;12.87;100.00;101578.72;5041979;28;20313;-80
2022/10/02 07:06:50;;;;;;;23.60;8.00;;;;;;;12.88;100.00;101579.56;5020429;28;20041;-80
2022/10/02 07:09:30;;;;;;;27.70;9.18;;;;;;;12.69;100.00;101548.94;5038820;28;20531;-81
2022/10/02 07:12:02;;;;;;;24.70;9.52;;;;;;;12.91;100.00;101576.69;5040493;28;20067;-80
2022/10/02 07:15:08;;;;;;;30.38;11.20;;;;;;;12.88;100.00;101568.91;5037169;28;20049;-81
2022/10/02 07:18:15;;;;;;;26.58;12.70;;;;;;;12.95;100.00;101578.13;5047500;28;20037;-81
2022/10/02 07:21:31;;;;;;;23.48;12.90;;;;;;;12.97;100.00;101570.84;5041822;28;20064;-80
2022/10/02 07:24:42;;;;;;;25.83;13.43;;;;;;;13.00;100.00;101581.31;5035430;28;20539;-80
2022/10/02 07:27:37;;;;;;;25.52;14.13;;;;;;;12.98;100.00;101577.06;5036548;28;20128;-80
2022/10/02 07:30:10;;;;;;;27.77;14.50;;;;;;;12.98;100.00;101575.25;5037185;28;20021;-81
2022/10/02 07:32:47;;;;;;;26.88;15.88;;;;;;;13.02;100.00;101579.38;5039036;28;20058;-81
2022/10/02 07:35:37;;;;;;;27.17;15.07;;;;;;;13.05;100.00;101588.97;5048616;28;20038;-80
2022/10/02 07:38:44;;;;;;;29.08;13.85;;;;;;;13.04;100.00;101579.25;5037508;28;20064;-81
2022/10/02 07:41:22;;;;;;;22.70;12.30;;;;;;;13.08;100.00;101586.91;5039683;28;20044;-80
2022/10/02 07:44:02;;;;;;;22.05;12.30;;;;;;;13.11;100.00;101589.34;5035379;28;20037;-80
2022/10/02 07:46:30;;;;;;;25.35;11.82;;;;;;;13.13;100.00;101591.91;5031301;28;20372;-81
2022/10/02 07:49:07;;;;;;;22.10;11.70;;;;;;;13.11;100.00;101584.00;5028938;28;20041;-80
2022/10/02 07:51:48;;;;;;;25.13;11.77;;;;;;;13.21;100.00;101594.00;5030880;28;20480;-81
2022/10/02 07:54:13;;;;;;;24.65;11.55;;;;;;;13.24;100.00;101594.63;5038123;28;20030;-80
2022/10/02 07:56:39;;;;;;;20.63;11.13;;;;;;;13.26;100.00;101592.69;5042086;28;20113;-81
2022/10/02 07:59:14;;;;;;;22.52;10.95;;;;;;;13.27;100.00;101597.06;5045972;28;20021;-82
2022/10/02 08:01:42;;;;;;;23.00;11.68;;;;;;;13.31;100.00;101597.66;5036173;28;20030;-83
2022/10/02 08:04:23;;;;;;;21.73;11.15;;;;;;;13.39;100.00;101600.63;5054798;28;20024;-83
2022/10/02 08:06:56;;;;;;;20.17;10.52;;;;;;;13.43;100.00;101603.91;5040023;28;20497;-83
2022/10/02 08:09:36;;;;;;;25.05;11.15;;;;;;;13.51;100.00;101605.03;5045719;28;20078;-83
2022/10/02 08:12:11;;;;;;;21.75;10.85;;;;;;;13.58;100.00;101617.91;5018052;28;20026;-81
2022/10/02 08:14:47;;;;;;;23.77;11.55;;;;;;;13.61;100.00;101612.34;5036213;28;20029;-83
2022/10/02 08:17:21;;;;;;;20.92;10.73;;;;;;;13.68;100.00;101622.41;5042080;28;20018;-83
2022/10/02 08:19:50;;;;;;;22.35;11.02;;;;;;;13.71;100.00;101628.50;5046653;28;20035;-83
2022/10/02 08:22:21;;;;;;;22.13;11.52;;;;;;;13.78;100.00;101635.88;5042669;28;20029;-82
2022/10/02 08:24:57;;;;;;;20.08;10.93;;;;;;;13.83;100.00;101635.53;5049946;28;20038;-81
2022/10/02 08:27:28;;;;;;;22.08;12.27;;;;;;;13.90;100.00;101635.91;5038122;28;20116;-81
2022/10/02 08:30:02;;;;;;;19.52;11.00;;;;;;;13.91;100.00;101637.63;5038989;28;20083;-83
2022/10/02 08:32:32;;;;;;;21.15;11.38;;;;;;;13.97;100.00;101640.66;5037207;28;20085;-82
2022/10/02 08:34:58;;;;;;;21.58;11.85;;;;;;;13.98;100.00;101630.81;5035956;28;20469;-83
2022/10/02 08:37:34;;;;;;;18.92;10.57;;;;;;;14.03;100.00;101636.66;5036473;28;20025;-82
2022/10/02 08:40:08;;;;;;;24.08;10.65;;;;;;;14.07;100.00;101651.44;5048031;28;20040;-82
2022/10/02 08:42:46;;;;;;;23.45;9.70;;;;;;;14.11;100.00;101647.56;5040022;28;20047;-82
2022/10/02 08:45:20;;;;;;;19.45;9.93;;;;;;;14.16;100.00;101658.75;5035917;28;20476;-83
2022/10/02 08:48:26;;;;;;;26.50;10.45;;;;;;;14.16;100.00;101655.22;5016318;28;20026;-82
2022/10/02 08:51:12;;;;;;;18.85;8.98;;;;;;;14.26;100.00;101666.88;5040409;28;20029;-82
2022/10/02 08:53:56;;;;;;;18.38;8.45;;;;;;;14.32;100.00;101671.75;5034790;28;20518;-83
2022/10/02 08:56:43;;;;;;;17.08;8.07;;;;;;;14.37;100.00;101666.03;5034499;28;20499;-83
2022/10/02 08:59:22;;;;;;;16.00;7.50;;;;;;;14.39;100.00;101661.44;5044426;28;20025;-80
2022/10/02 09:02:02;;;;;;;14.55;6.97;;;;;;;14.47;100.00;101669.69;5035749;28;20030;-82
2022/10/02 09:05:01;;;;;;;15.93;7.00;;;;;;;14.55;100.00;101677.06;5037276;28;20032;-82
2022/10/02 09:07:38;;;;;;;17.17;7.47;;;;;;;14.60;100.00;101667.75;5043019;28;20032;-81
2022/10/02 09:10:44;;;;;;;20.52;7.63;;;;;;;14.64;100.00;101679.06;5048028;28;20109;-81
2022/10/02 09:13:47;;;;;;;17.23;7.45;;;;;;;14.68;100.00;101680.50;5047257;28;20124;-82
2022/10/02 09:16:38;;;;;;;17.63;6.75;;;;;;;14.70;100.00;101686.56;5036570;28;20516;-82
2022/10/02 09:19:29;;;;;;;22.40;7.00;;;;;;;14.73;100.00;101674.78;5046716;28;20555;-82
2022/10/02 09:22:22;;;;;;;19.38;6.72;;;;;;;14.86;100.00;101685.34;5042006;28;20083;-82
2022/10/02 09:25:15;;;;;;;16.13;6.13;;;;;;;14.97;100.00;101686.16;5039453;28;20043;-82
2022/10/02 09:28:08;;;;;;;19.80;6.70;;;;;;;15.06;100.00;101676.53;5042701;28;20031;-82
2022/10/02 09:31:02;;;;;;;16.55;5.60;;;;;;;15.13;100.00;101680.38;5033094;28;20026;-82
2022/10/02 09:34:03;;;;;;;17.23;5.40;;;;;;;15.15;100.00;101680.25;5039958;28;20380;-82
2022/10/02 09:37:07;;;;;;;15.50;5.72;;;;;;;15.22;100.00;101686.81;5020179;28;20800;-82
2022/10/02 09:40:08;;;;;;;19.60;5.38;;;;;;;15.22;100.00;101692.16;5042653;28;20043;-82
2022/10/02 09:42:48;;;;;;;16.25;5.22;;;;;;;15.24;100.00;101692.88;5027401;28;20098;-83
2022/10/02 09:45:42;;;;;;;16.58;6.20;;;;;;;15.32;100.00;101705.59;5042859;28;20346;-83
2022/10/02 09:48:45;;;;;;;18.60;5.90;;;;;;;15.43;100.00;101705.56;5041237;28;20025;-80
2022/10/02 09:51:20;;;;;;;15.18;4.82;;;;;;;15.47;100.00;101703.47;5025787;28;20029;-83
2022/10/02 09:54:14;;;;;;;17.80;5.28;;;;;;;15.49;98.98;101694.34;5019024;28;20048;-83
2022/10/02 09:56:52;;;;;;;16.10;4.65;;;;;;;15.56;98.71;101705.41;5030635;28;20033;-83
2022/10/02 09:59:46;;;;;;;14.20;4.45;;;;;;;15.58;99.23;101706.13;5031027;28;20034;-82
2022/10/02 10:02:43;;;;;;;17.05;5.53;;;;;;;15.57;98.49;101714.28;5034768;28;21024;-82
2022/10/02 10:05:21;;;;;;;15.25;4.53;;;;;;;15.68;98.12;101698.16;5031225;28;20172;-83
2022/10/02 10:08:14;;;;;;;18.35;4.95;;;;;;;15.90;97.08;101708.78;5030199;28;20045;-84
2022/10/02 10:10:52;;;;;;;14.77;5.05;;;;;;;16.04;96.42;101699.56;5030651;28;20477;-82
2022/10/02 10:13:23;;;;;;;21.80;5.40;;;;;;;16.18;96.12;101709.06;5034291;28;20044;-82
2022/10/02 10:16:00;;;;;;;19.92;5.15;;;;;;;16.25;95.71;101706.69;5033808;28;20045;-82
2022/10/02 10:18:25;;;;;;;12.93;4.60;;;;;;;16.29;93.32;101716.19;5035920;28;20029;-82
2022/10/02 10:21:11;;;;;;;14.73;4.72;;;;;;;16.43;94.61;101720.34;5042086;28;20048;-83
2022/10/02 10:24:06;;;;;;;17.75;4.82;;;;;;;16.52;94.85;101724.91;5025704;28;20049;-82
2022/10/02 10:26:47;;;;;;;18.13;4.85;;;;;;;16.45;92.89;101721.03;5031011;28;20079;-83
2022/10/02 10:29:35;;;;;;;17.83;4.97;;;;;;;16.44;91.78;101722.88;5039586;28;20040;-83
2022/10/02 10:32:38;;;;;;;17.60;4.53;;;;;;;16.55;91.88;101750.59;5039161;28;20037;-83
2022/10/02 10:35:19;;;;;;;16.25;4.80;;;;;;;16.47;90.61;101751.28;5013412;28;20050;-83
2022/10/02 10:38:31;;;;;;;19.35;4.47;;;;;;;16.45;90.42;101754.09;5038349;28;20423;-83
2022/10/02 10:41:21;;;;;;;16.58;4.25;;;;;;;16.47;89.75;101762.00;5034672;28;20025;-82
2022/10/02 10:43:49;;;;;;;19.90;5.00;;;;;;;16.46;89.46;101765.66;5044507;28;20087;-82
2022/10/02 10:46:41;;;;;;;18.70;4.55;;;;;;;16.50;91.10;101767.06;5051055;28;20036;-83
2022/10/02 10:49:34;;;;;;;18.92;5.05;;;;;;;16.43;89.41;101755.19;5052273;28;20030;-83
2022/10/02 10:52:21;;;;;;;16.92;3.85;;;;;;;16.51;89.48;101774.16;5040238;28;20064;-82
2022/10/02 10:55:08;;;;;;;13.68;4.00;;;;;;;16.53;89.80;101765.97;5036078;28;20563;-83
2022/10/02 10:57:44;;;;;;;23.05;3.95;;;;;;;16.50;88.66;101766.22;5032512;28;20037;-83
2022/10/02 11:00:09;;;;;;;18.83;3.60;;;;;;;16.54;87.36;101759.63;5040100;28;20029;-82
2022/10/02 11:02:56;;;;;;;18.83;3.88;;;;;;;16.59;87.56;101766.28;5037377;28;20034;-82
2022/10/02 11:06:06;;;;;;;15.55;3.92;;;;;;;16.62;87.98;101757.09;5035175;28;20029;-83
2022/10/02 11:09:08;;;;;;;15.60;3.90;;;;;;;16.63;87.88;101750.75;5044819;28;20056;-83
2022/10/02 11:11:57;;;;;;;19.10;4.07;;;;;;;16.69;86.84;101757.44;5032335;28;20770;-81
2022/10/02 11:14:53;;;;;;;14.23;4.15;;;;;;;16.69;87.97;101760.97;5034953;28;20040;-82
2022/10/02 11:17:31;;;;;;;15.73;3.63;;;;;;;16.69;86.70;101765.50;5030612;28;20037;-83
2022/10/02 11:20:18;;;;;;;18.23;4.10;;;;;;;16.67;85.32;101754.91;5046132;28;20451;-83
2022/10/02 11:23:00;;;;;;;15.93;3.95;;;;;;;16.71;85.52;101766.19;5036574;28;20494;-82
2022/10/02 11:25:47;;;;;;;16.20;3.90;;;;;;;16.63;86.54;101742.72;5037050;28;20391;-82
2022/10/02 11:28:41;;;;;;;13.85;4.07;;;;;;;16.75;84.65;101772.97;5039265;28;20065;-83
2022/10/02 11:31:35;;;;;;;17.88;4.20;;;;;;;16.75;85.94;101781.91;5045841;28;20036;-82
2022/10/02 11:34:17;;;;;;;18.48;4.55;;;;;;;16.62;83.68;101771.38;5045078;28;20057;-82
2022/10/02 11:37:06;;;;;;;13.07;3.58;;;;;;;16.71;85.43;101776.94;5037413;28;20022;-82
2022/10/02 11:39:35;;;;;;;;;;;;;;;16.82;86.54;101790.25;5031021;28;20028;-82
2022/10/02 11:42:25;;;;;;;19.55;4.32;;;;;;;16.62;83.32;101786.59;5039193;28;19999;-82
2022/10/02 11:45:01;;;;;;;21.05;3.97;;;;;;;16.67;84.08;101791.56;5027553;28;20083;-82
2022/10/02 11:48:08;;;;;;;17.67;3.80;;;;;;;16.70;85.16;101786.78;5033339;28;20032;-82
2022/10/02 11:50:58;;;;;;;17.75;4.25;;;;;;;16.82;86.20;101787.56;5040411;28;20038;-82
2022/10/02 11:53:36;;;;;;;17.83;4.22;;;;;;;16.93;84.75;101778.59;5048529;28;20048;-82
2022/10/02 11:56:23;;;;;;;17.33;5.05;;;;;;;17.03;85.98;101784.81;5038681;28;20334;-82
2022/10/02 11:59:26;;;;;;;19.90;5.60;;;;;;;17.10;84.01;101780.63;5048447;28;20033;-82
2022/10/02 12:01:55;;;;;;;15.48;5.00;;;;;;;17.05;82.21;101784.69;5030911;28;20396;-82
2022/10/02 12:04:27;;;;;;;;;;;;;;;17.14;85.59;101784.72;5041070;28;20526;-83
2022/10/02 12:07:14;;;;;;;19.23;5.72;;;;;;;16.99;86.38;101797.69;5038060;28;19912;-81
2022/10/02 12:09:42;;;;;;;20.92;6.15;;;;;;;16.89;86.59;101795.97;5049277;28;20068;-81
2022/10/02 12:12:23;;;;;;;14.95;5.85;;;;;;;16.85;85.76;101789.16;5036313;28;20555;-81